Time;durP1;ratioP1;P1;durP2;ratioP2;P2;SDS_P1;SDS_P2;PMS_P1;PMS_P2;Temp;Humidity;BMP_temperature;BMP_pressure;BME280_temperature;BME280_humidity;BME280_pressure;Samples;Min_cycle;Max_cycle;Signal;HPM_P1;HPM_P2
2021/12/21 00:01:33;;;;;;;2.30;2.20;;;;;;;-3.76;100.00;102290.75;4346243;32;20071;-76
2021/12/21 00:03:59;;;;;;;2.50;2.40;;;;;;;-3.67;100.00;102314.16;4352754;32;20536;-74
2021/12/21 00:06:24;;;;;;;2.10;2.00;;;;;;;-3.70;100.00;102308.03;4355817;32;20063;-74
2021/12/21 00:08:49;;;;;;;2.12;2.03;;;;;;;-3.82;100.00;102296.53;4345124;32;20080;-74
2021/12/21 00:11:15;;;;;;;4.28;4.07;;;;;;;-3.83;100.00;102296.50;4347355;32;20090;-76
2021/12/21 00:14:35;;;;;;;2.40;2.30;;;;;;;-3.87;100.00;102294.66;4341499;32;20701;-75
2021/12/21 00:22:08;;;;;;;2.72;2.62;;;;;;;-4.72;100.00;102155.13;4341222;32;20189;-74
2021/12/21 00:24:44;;;;;;;2.47;2.37;;;;;;;-3.82;100.00;102306.81;4344965;32;20093;-75
2021/12/21 00:27:10;;;;;;;3.65;3.55;;;;;;;-4.01;100.00;102279.69;4344863;32;20080;-75
2021/12/21 00:29:35;;;;;;;2.20;2.10;;;;;;;-3.88;100.00;102308.31;4345267;32;20086;-75
2021/12/21 00:32:00;;;;;;;2.78;2.67;;;;;;;-4.29;100.00;102233.44;4341454;32;20804;-74
2021/12/21 00:34:26;;;;;;;2.28;2.17;;;;;;;-3.92;100.00;102294.50;4334248;32;20070;-73
2021/12/21 00:36:52;;;;;;;2.20;2.10;;;;;;;-4.58;100.00;102188.91;4346260;32;20085;-74
2021/12/21 00:39:17;;;;;;;2.10;2.00;;;;;;;-4.51;100.00;102224.16;4346118;32;20486;-75
2021/12/21 00:41:42;;;;;;;2.00;1.90;;;;;;;-4.14;100.00;102274.09;4343579;32;20420;-75
2021/12/21 00:44:08;;;;;;;2.50;2.40;;;;;;;-4.56;100.00;102208.63;4363394;32;20075;-75
2021/12/21 00:46:33;;;;;;;2.20;2.10;;;;;;;-4.85;100.00;102164.97;4349922;32;20066;-75
2021/12/21 00:49:12;;;;;;;2.47;2.37;;;;;;;-4.04;100.00;102310.34;4339661;32;20061;-73
2021/12/21 00:51:37;;;;;;;1.85;1.80;;;;;;;-4.06;100.00;102300.87;4346027;32;20690;-74
2021/12/21 00:54:02;;;;;;;3.20;3.05;;;;;;;-4.89;100.00;102162.22;4340419;32;20141;-74
2021/12/21 00:56:28;;;;;;;2.20;2.10;;;;;;;-4.10;100.00;102297.31;4371422;32;20494;-74
2021/12/21 00:58:53;;;;;;;2.10;2.00;;;;;;;-5.29;100.00;102110.53;4363857;32;20080;-74
2021/12/21 01:01:18;;;;;;;2.20;2.10;;;;;;;-4.15;100.00;102293.75;4357287;32;20085;-74
2021/12/21 01:03:49;;;;;;;3.00;2.90;;;;;;;-4.17;100.00;102297.06;4348933;32;20707;-74
2021/12/21 01:06:39;;;;;;;3.85;3.70;;;;;;;-4.28;100.00;102274.50;4345447;32;20062;-74
2021/12/21 01:12:01;;;;;;;1.73;1.73;;;;;;;-4.22;100.00;102273.84;4340199;32;20072;-75
2021/12/21 01:20:14;;;;;;;2.60;2.50;;;;;;;-4.73;100.00;102212.28;4325480;32;20112;-73
2021/12/21 01:23:13;;;;;;;2.10;2.00;;;;;;;-4.63;100.00;102220.37;4335410;32;20089;-74
2021/12/21 01:25:47;;;;;;;2.00;1.90;;;;;;;-4.30;100.00;102285.53;4350682;32;20117;-74
2021/12/21 01:35:37;;;;;;;2.00;1.90;;;;;;;-4.31;100.00;102286.31;4341775;32;20657;-74
2021/12/21 01:38:18;;;;;;;2.67;2.58;;;;;;;-4.87;100.00;102181.97;4359014;32;20118;-75
2021/12/21 01:40:54;;;;;;;2.55;2.45;;;;;;;-4.45;100.00;102262.78;4356526;32;20546;-75
2021/12/21 01:44:04;;;;;;;4.57;4.37;;;;;;;-5.05;100.00;102163.38;4343640;32;20640;-75
2021/12/21 01:51:53;;;;;;;2.08;1.98;;;;;;;-4.59;100.00;102259.78;4326113;32;20105;-75
2021/12/21 01:54:18;;;;;;;2.12;2.03;;;;;;;-4.46;100.00;102274.72;4355278;32;20481;-75
2021/12/21 01:56:44;;;;;;;2.10;2.00;;;;;;;-5.23;100.00;102153.38;4347378;32;20066;-75
2021/12/21 01:59:09;;;;;;;3.97;3.80;;;;;;;-4.87;100.00;102214.34;4361340;32;20074;-75
2021/12/21 02:01:35;;;;;;;2.30;2.20;;;;;;;-4.48;100.00;102275.50;4350272;32;20062;-75
2021/12/21 02:04:01;;;;;;;2.70;2.62;;;;;;;-4.50;100.00;102288.25;4337506;32;20088;-74
2021/12/21 02:06:27;;;;;;;2.10;2.00;;;;;;;-4.54;100.00;102276.16;4357368;32;20082;-76
2021/12/21 02:08:52;;;;;;;2.12;2.03;;;;;;;-4.57;100.00;102270.06;4345386;32;20088;-75
2021/12/21 02:11:17;;;;;;;2.67;2.58;;;;;;;-4.57;100.00;102270.06;4360539;32;20681;-75
2021/12/21 02:13:48;;;;;;;2.00;1.90;;;;;;;-4.65;100.00;102246.72;4347107;32;20427;-74
2021/12/21 02:16:21;;;;;;;3.83;3.67;;;;;;;-4.67;100.00;102250.91;4358670;32;20070;-74
2021/12/21 02:18:54;;;;;;;2.33;2.22;;;;;;;-4.58;100.00;102269.19;4372813;32;20082;-75
2021/12/21 02:23:45;;;;;;;2.20;2.10;;;;;;;-5.18;100.00;102153.53;4373242;32;20077;-74
2021/12/21 02:27:18;;;;;;;4.03;3.85;;;;;;;-5.46;100.00;102114.16;4342714;32;20105;-75
2021/12/21 02:29:25;;;;;;;3.62;3.53;;;;;;;-5.34;100.00;102145.28;4334279;32;20085;-76
2021/12/21 02:31:50;;;;;;;2.10;2.00;;;;;;;-4.81;100.00;102235.97;4350663;32;20168;-75
2021/12/21 02:34:16;;;;;;;3.00;2.90;;;;;;;-5.67;100.00;102081.88;4355724;32;20377;-74
2021/12/21 02:36:43;;;;;;;2.20;2.10;;;;;;;-5.31;100.00;102140.31;4341406;32;20278;-75
2021/12/21 02:39:09;;;;;;;3.75;3.62;;;;;;;-4.93;100.00;102209.03;4347429;32;20177;-75
2021/12/21 02:41:35;;;;;;;2.22;2.12;;;;;;;-6.40;100.00;101965.03;4343425;32;20581;-76
2021/12/21 02:44:00;;;;;;;2.58;2.47;;;;;;;-5.27;100.00;102161.72;4355480;32;20568;-74
2021/12/21 02:46:26;;;;;;;1.83;1.83;;;;;;;-5.16;100.00;102180.06;4345953;32;20062;-73
2021/12/21 02:48:51;;;;;;;2.00;1.90;;;;;;;-4.91;100.00;102236.44;4359909;32;20070;-75
2021/12/21 02:51:17;;;;;;;2.10;2.00;;;;;;;-4.77;100.00;102259.09;4361469;32;20692;-73
2021/12/21 02:53:44;;;;;;;2.60;2.50;;;;;;;-6.00;100.00;102049.97;4348605;32;20782;-75
2021/12/21 02:56:09;;;;;;;3.78;3.65;;;;;;;-5.25;100.00;102176.34;4359089;32;20063;-74
2021/12/21 02:58:35;;;;;;;3.65;3.45;;;;;;;-4.94;100.00;102233.75;4351196;32;20216;-74
2021/12/21 03:01:02;;;;;;;2.83;2.72;;;;;;;-4.84;100.00;102250.34;4341768;32;20073;-73
2021/12/21 03:03:27;;;;;;;2.10;2.00;;;;;;;-4.90;100.00;102240.72;4335012;32;20077;-75
2021/12/21 03:05:55;;;;;;;2.00;1.90;;;;;;;-6.48;100.00;101976.66;4345838;32;20726;-75
2021/12/21 03:08:24;;;;;;;1.80;1.80;;;;;;;-5.43;100.00;102156.06;4346524;32;20073;-74
2021/12/21 03:11:05;;;;;;;2.15;2.05;;;;;;;-5.18;100.00;102197.03;4345049;32;20070;-75
2021/12/21 03:16:15;;;;;;;4.18;3.97;;;;;;;-6.03;100.00;102055.84;4374402;32;20080;-75
2021/12/21 03:18:40;;;;;;;2.30;2.20;;;;;;;-4.89;100.00;102247.63;4347122;32;20062;-75
2021/12/21 03:21:06;;;;;;;3.90;3.72;;;;;;;-4.91;100.00;102258.59;4347252;32;20525;-76
2021/12/21 03:23:31;;;;;;;2.40;2.30;;;;;;;-4.91;100.00;102253.47;4343433;32;20085;-75
2021/12/21 03:25:56;;;;;;;2.10;2.00;;;;;;;-4.94;100.00;102251.69;4350786;32;20121;-75
2021/12/21 03:28:22;;;;;;;2.40;2.30;;;;;;;-5.62;100.00;102138.28;4345577;32;20529;-74
2021/12/21 03:30:47;;;;;;;2.10;2.00;;;;;;;-4.97;100.00;102254.16;4346775;32;20568;-75
2021/12/21 03:33:12;;;;;;;3.12;3.03;;;;;;;-5.15;100.00;102221.06;4335906;32;20062;-74
2021/12/21 03:35:38;;;;;;;2.10;2.00;;;;;;;-4.98;100.00;102248.97;4359269;32;20066;-75
2021/12/21 03:38:03;;;;;;;3.10;3.00;;;;;;;-5.19;100.00;102236.22;4347626;32;20074;-73
2021/12/21 03:40:32;;;;;;;1.80;1.80;;;;;;;-5.17;100.00;102211.56;4341280;32;20576;-74
2021/12/21 03:42:58;;;;;;;2.03;1.92;;;;;;;-5.02;100.00;102230.06;4344708;32;20081;-75
2021/12/21 03:45:24;;;;;;;2.72;2.62;;;;;;;-5.03;100.00;102244.53;4348884;32;20140;-75
2021/12/21 03:47:49;;;;;;;1.80;1.80;;;;;;;-5.02;100.00;102248.84;4338319;32;20110;-76
2021/12/21 03:50:19;;;;;;;3.65;3.55;;;;;;;-5.17;100.00;102220.13;4352441;32;20407;-77
2021/12/21 03:52:44;;;;;;;2.12;2.03;;;;;;;-5.21;100.00;102218.28;4368435;32;20409;-75
2021/12/21 03:55:10;;;;;;;3.45;3.35;;;;;;;-5.05;100.00;102261.53;4360513;32;20059;-75
2021/12/21 03:57:35;;;;;;;2.05;1.95;;;;;;;-5.06;100.00;102253.78;4370189;32;20066;-76
2021/12/21 04:00:00;;;;;;;2.22;2.12;;;;;;;-5.26;100.00;102210.41;4362788;27;20080;-74
2021/12/21 04:02:27;;;;;;;2.20;2.10;;;;;;;-5.51;100.00;102169.37;4368216;32;20091;-75
2021/12/21 04:04:54;;;;;;;2.00;1.90;;;;;;;-5.69;100.00;102141.41;4381469;32;20445;-74
2021/12/21 04:07:19;;;;;;;2.28;2.17;;;;;;;-5.12;100.00;102240.78;4376142;32;21058;-73
2021/12/21 04:09:44;;;;;;;1.70;1.70;;;;;;;-5.14;100.00;102234.72;4377795;32;20280;-75
2021/12/21 04:12:10;;;;;;;3.97;3.80;;;;;;;-5.74;100.00;102137.84;4360756;32;20073;-73
2021/12/21 04:14:36;;;;;;;2.20;2.10;;;;;;;-5.30;100.00;102213.66;4373259;32;20074;-75
2021/12/21 04:17:02;;;;;;;3.05;2.95;;;;;;;-5.39;100.00;102213.34;4364318;32;20107;-73
2021/12/21 04:19:27;;;;;;;2.33;2.22;;;;;;;-5.24;100.00;102234.38;4377109;32;20678;-74
2021/12/21 04:21:53;;;;;;;2.40;2.30;;;;;;;-5.26;100.00;102240.25;4371909;32;20386;-74
2021/12/21 04:24:18;;;;;;;3.28;3.17;;;;;;;-5.29;100.00;102235.91;4376340;32;20521;-73
2021/12/21 04:27:15;;;;;;;16.27;15.48;;;;;;;-5.94;100.00;102143.06;4326010;32;20310;-73
2021/12/21 04:29:40;;;;;;;2.05;1.95;;;;;;;-5.32;100.00;102238.34;4380875;32;20091;-77
2021/12/21 04:32:06;;;;;;;3.75;3.62;;;;;;;-5.33;100.00;102233.16;4386725;32;20578;-74
2021/12/21 04:34:31;;;;;;;2.05;1.95;;;;;;;-5.47;100.00;102209.59;4370032;32;20079;-75
2021/12/21 04:36:57;;;;;;;2.05;1.95;;;;;;;-5.35;100.00;102222.87;4361634;32;20402;-74
2021/12/21 04:42:06;;;;;;;3.33;3.22;;;;;;;-5.47;100.00;102209.59;4383829;32;20519;-74
2021/12/21 04:44:32;;;;;;;2.10;2.00;;;;;;;-5.66;100.00;102188.44;4379410;32;20081;-74
2021/12/21 04:46:57;;;;;;;2.42;2.33;;;;;;;-5.38;100.00;102220.19;4380291;32;20146;-74
2021/12/21 04:49:23;;;;;;;2.10;2.00;;;;;;;-5.40;100.00;102219.25;4378558;32;20304;-73
2021/12/21 04:51:48;;;;;;;2.05;1.95;;;;;;;-5.65;100.00;102174.00;4368298;32;20803;-73
2021/12/21 04:54:13;;;;;;;3.45;3.35;;;;;;;-5.42;100.00;102219.19;4371600;32;20326;-71
2021/12/21 04:56:40;;;;;;;2.10;2.00;;;;;;;-5.94;100.00;102130.28;4368477;32;20080;-75
2021/12/21 04:59:05;;;;;;;2.10;2.00;;;;;;;-5.78;100.00;102161.56;4364849;32;20525;-74
2021/12/21 05:01:31;;;;;;;2.10;2.00;;;;;;;-5.45;100.00;102213.97;4374355;32;20631;-75
2021/12/21 05:03:56;;;;;;;2.00;1.90;;;;;;;-5.64;100.00;102196.19;4365824;32;20074;-72
2021/12/21 05:06:21;;;;;;;1.65;1.65;;;;;;;-5.64;100.00;102201.31;4360676;32;20209;-73
2021/12/21 05:09:03;;;;;;;2.00;1.90;;;;;;;-5.59;100.00;102227.03;4367208;32;20084;-73
2021/12/21 05:11:32;;;;;;;2.00;1.90;;;;;;;-5.74;100.00;102189.84;4361074;32;20086;-74
2021/12/21 05:14:00;;;;;;;1.90;1.85;;;;;;;-5.66;100.00;102197.81;4367340;32;20096;-73
2021/12/21 05:16:25;;;;;;;2.10;2.00;;;;;;;-6.09;100.00;102127.19;4363831;32;20082;-73
2021/12/21 05:18:51;;;;;;;1.95;1.85;;;;;;;-5.81;100.00;102180.22;4367014;32;20069;-73
2021/12/21 05:21:16;;;;;;;2.92;2.83;;;;;;;-6.01;100.00;102148.78;4360942;32;20445;-75
2021/12/21 05:23:42;;;;;;;2.17;2.08;;;;;;;-5.79;100.00;102190.47;4388219;32;20089;-74
2021/12/21 05:26:07;;;;;;;3.72;3.58;;;;;;;-6.13;100.00;102133.84;4366086;32;20101;-74
2021/12/21 05:28:32;;;;;;;1.80;1.80;;;;;;;-5.59;100.00;102222.81;4362725;32;20061;-74
2021/12/21 05:31:01;;;;;;;2.20;2.10;;;;;;;-5.59;100.00;102229.59;4363149;32;20069;-73
2021/12/21 05:33:28;;;;;;;2.10;2.00;;;;;;;-5.62;100.00;102228.66;4363596;32;20708;-73
2021/12/21 05:35:53;;;;;;;2.20;2.10;;;;;;;-5.95;100.00;102177.16;4379688;32;20626;-74
2021/12/21 05:38:28;;;;;;;6.93;4.07;;;;;;;-5.83;100.00;102197.16;4358393;32;20324;-74
2021/12/21 05:40:54;;;;;;;2.00;1.90;;;;;;;-5.82;100.00;102199.75;4374457;32;20244;-74
2021/12/21 05:43:19;;;;;;;3.25;3.12;;;;;;;-6.18;100.00;102140.44;4360823;32;20264;-73
2021/12/21 05:45:45;;;;;;;2.10;2.00;;;;;;;-5.99;100.00;102170.16;4374801;32;20078;-74
2021/12/21 05:48:10;;;;;;;4.25;4.05;;;;;;;-6.77;100.00;102047.88;4359475;32;20598;-75
2021/12/21 05:50:36;;;;;;;2.00;1.90;;;;;;;-6.14;100.00;102147.41;4373094;32;20076;-74
2021/12/21 05:53:01;;;;;;;2.55;2.47;;;;;;;-7.05;100.00;102022.91;4369098;32;20411;-75
2021/12/21 05:55:27;;;;;;;2.10;2.00;;;;;;;-6.05;100.00;102175.03;4374557;32;20082;-74
2021/12/21 05:57:52;;;;;;;2.10;2.00;;;;;;;-7.13;100.00;101991.12;4375342;32;20200;-75
2021/12/21 06:00:21;;;;;;;2.62;2.53;;;;;;;-5.69;100.00;102233.47;4371973;32;20342;-74
2021/12/21 06:02:46;;;;;;;2.30;2.20;;;;;;;-6.08;100.00;102170.66;4373858;32;20507;-74
2021/12/21 06:05:12;;;;;;;3.65;3.55;;;;;;;-5.69;100.00;102233.47;4374789;32;20085;-75
2021/12/21 06:07:37;;;;;;;1.87;1.83;;;;;;;-6.03;100.00;102164.06;4364013;32;20096;-74
2021/12/21 06:10:10;;;;;;;4.40;4.10;;;;;;;-5.90;100.00;102202.84;4372919;32;20469;-73
2021/12/21 06:15:25;;;;;;;3.42;3.33;;;;;;;-6.18;100.00;102139.59;4376545;32;20061;-74
2021/12/21 06:23:45;;;;;;;3.90;3.75;;;;;;;-5.67;100.00;102253.22;4375068;32;20589;-74
2021/12/21 06:26:12;;;;;;;3.80;3.65;;;;;;;-6.17;100.00;102164.31;4373324;32;20172;-74
2021/12/21 06:28:38;;;;;;;2.03;1.92;;;;;;;-5.74;100.00;102240.13;4362811;32;20665;-75
2021/12/21 06:31:03;;;;;;;3.62;3.47;;;;;;;-6.31;100.00;102145.91;4376781;32;20077;-73
2021/12/21 06:33:29;;;;;;;2.50;2.40;;;;;;;-5.77;100.00;102242.53;4364738;32;20089;-72
2021/12/21 06:35:55;;;;;;;1.85;1.85;;;;;;;-6.29;100.00;102160.47;4367049;32;20077;-73
2021/12/21 06:38:20;;;;;;;1.70;1.70;;;;;;;-7.28;100.00;102001.53;4355763;32;20559;-74
2021/12/21 06:40:46;;;;;;;1.85;1.85;;;;;;;-6.38;100.00;102147.31;4374562;32;20080;-74
2021/12/21 06:43:14;;;;;;;3.87;3.72;;;;;;;-5.85;100.00;102245.69;4359601;32;20088;-75
2021/12/21 06:53:35;;;;;;;1.80;1.80;;;;;;;-5.89;100.00;102242.94;4376459;32;20092;-74
2021/12/21 06:56:01;;;;;;;2.58;2.47;;;;;;;-5.89;100.00;102246.38;4377060;32;20066;-74
2021/12/21 06:58:26;;;;;;;2.78;2.67;;;;;;;-5.88;100.00;102244.69;4377400;32;20707;-74
2021/12/21 07:00:55;;;;;;;1.80;1.80;;;;;;;-5.87;100.00;102247.31;4372864;32;20076;-75
2021/12/21 07:03:20;;;;;;;2.10;2.00;;;;;;;-5.87;100.00;102254.09;4376057;32;20084;-74
2021/12/21 07:05:47;;;;;;;2.00;1.90;;;;;;;-6.45;100.00;102160.66;4378418;32;20086;-74
2021/12/21 07:08:16;;;;;;;3.78;3.65;;;;;;;-6.07;100.00;102236.31;4371191;32;20080;-74
2021/12/21 07:10:51;;;;;;;2.10;2.00;;;;;;;-6.28;100.00;102189.44;4363155;32;20069;-74
2021/12/21 07:18:44;;;;;;;1.70;1.70;;;;;;;-5.95;100.00;102269.16;4385896;32;20177;-74
2021/12/21 07:21:09;;;;;;;3.83;3.67;;;;;;;-5.95;100.00;102263.16;4358697;32;20247;-75
2021/12/21 07:23:35;;;;;;;2.10;2.00;;;;;;;-5.96;100.00;102259.72;4358434;32;20081;-75
2021/12/21 07:26:00;;;;;;;2.08;1.98;;;;;;;-5.96;100.00;102259.72;4376852;32;20533;-73
2021/12/21 07:28:25;;;;;;;1.60;1.60;;;;;;;-6.48;100.00;102178.41;4361880;32;20077;-73
2021/12/21 07:30:51;;;;;;;1.80;1.80;;;;;;;-6.40;100.00;102194.91;4364014;32;20062;-73
2021/12/21 07:33:16;;;;;;;4.07;3.87;;;;;;;-6.04;100.00;102250.87;4370107;32;20074;-74
2021/12/21 07:35:42;;;;;;;2.12;2.03;;;;;;;-6.07;100.00;102241.41;4377747;32;20472;-74
2021/12/21 07:38:07;;;;;;;3.95;3.80;;;;;;;-6.05;100.00;102244.03;4366742;32;20566;-75
2021/12/21 07:40:33;;;;;;;2.30;2.20;;;;;;;-5.94;100.00;102263.19;4373736;32;20486;-75
2021/12/21 07:43:00;;;;;;;1.80;1.80;;;;;;;-6.16;100.00;102230.81;4375716;32;20116;-73
2021/12/21 07:45:26;;;;;;;2.08;1.98;;;;;;;-6.44;100.00;102170.06;4363886;32;21032;-75
2021/12/21 07:47:51;;;;;;;2.00;1.90;;;;;;;-6.14;100.00;102216.41;4367227;32;20088;-74
2021/12/21 07:50:17;;;;;;;3.92;3.75;;;;;;;-5.89;100.00;102264.25;4357413;32;20084;-74
2021/12/21 07:52:42;;;;;;;2.00;1.90;;;;;;;-6.55;100.00;102154.28;4361159;32;20612;-74
2021/12/21 07:55:08;;;;;;;3.50;3.40;;;;;;;-6.37;100.00;102169.50;4376186;32;20588;-75
2021/12/21 07:57:33;;;;;;;2.05;1.95;;;;;;;-6.97;100.00;102067.47;4364147;32;20096;-74
2021/12/21 08:00:01;;;;;;;1.85;1.83;;;;;;;-5.84;100.00;102267.00;4370327;32;20122;-73
2021/12/21 08:02:28;;;;;;;2.10;2.00;;;;;;;-5.96;100.00;102249.50;4364314;32;20151;-73
2021/12/21 08:04:53;;;;;;;1.70;1.70;;;;;;;-5.79;100.00;102268.06;4374021;32;20567;-74
2021/12/21 08:07:23;;;;;;;2.50;2.40;;;;;;;-5.78;100.00;102264.69;4358607;32;20256;-73
2021/12/21 08:09:54;;;;;;;2.00;1.90;;;;;;;-6.86;100.00;102078.97;4378334;32;20422;-74
2021/12/21 08:12:20;;;;;;;3.00;2.90;;;;;;;-5.86;100.00;102256.69;4359776;32;20241;-73
2021/12/21 08:14:52;;;;;;;1.90;1.85;;;;;;;-6.23;100.00;102168.38;4378740;32;20066;-73
2021/12/21 08:17:18;;;;;;;3.12;3.03;;;;;;;-5.99;100.00;102212.72;4358994;32;20636;-74
2021/12/21 08:19:46;;;;;;;2.40;2.30;;;;;;;-5.56;100.00;102283.44;4373049;32;20647;-74
2021/12/21 08:22:12;;;;;;;4.22;4.03;;;;;;;-5.52;100.00;102272.53;4370131;32;20285;-75
2021/12/21 08:24:38;;;;;;;2.00;1.90;;;;;;;-5.67;100.00;102242.97;4374636;32;20086;-73
2021/12/21 08:27:04;;;;;;;3.75;3.60;;;;;;;-5.57;100.00;102253.56;4372468;32;20065;-73
2021/12/21 08:29:29;;;;;;;1.80;1.80;;;;;;;-5.38;100.00;102270.50;4376312;32;20068;-74
2021/12/21 08:31:54;;;;;;;2.08;1.98;;;;;;;-5.82;100.00;102191.22;4374822;32;20575;-73
2021/12/21 08:34:21;;;;;;;2.40;2.30;;;;;;;-5.31;100.00;102263.13;4372724;32;20069;-72
2021/12/21 08:36:46;;;;;;;2.20;2.10;;;;;;;-5.27;100.00;102264.97;4387835;32;20618;-73
2021/12/21 08:39:12;;;;;;;3.35;3.25;;;;;;;-5.20;100.00;102276.31;4358612;32;20089;-74
2021/12/21 08:41:41;;;;;;;2.00;1.90;;;;;;;-6.99;100.00;101963.62;4359252;32;20089;-74
2021/12/21 08:44:09;;;;;;;1.83;1.80;;;;;;;-5.18;100.00;102255.91;4373865;32;20059;-74
2021/12/21 08:46:35;;;;;;;1.85;1.80;;;;;;;-5.19;100.00;102247.34;4363302;32;20429;-74
2021/12/21 08:49:00;;;;;;;2.15;2.05;;;;;;;-4.95;100.00;102266.97;4376654;32;20116;-73
2021/12/21 08:51:25;;;;;;;2.05;1.95;;;;;;;-5.17;100.00;102211.56;4370764;32;20088;-74
2021/12/21 08:53:51;;;;;;;2.10;2.00;;;;;;;-4.67;100.00;102276.53;4358952;32;20066;-74
2021/12/21 08:56:16;;;;;;;3.62;3.47;;;;;;;-4.58;100.00;102276.88;4359528;32;20320;-75
2021/12/21 08:58:42;;;;;;;2.15;2.05;;;;;;;-4.67;100.00;102245.78;4375265;32;20083;-75
2021/12/21 09:01:07;;;;;;;4.15;3.95;;;;;;;-4.47;100.00;102266.97;4367739;32;20086;-74
2021/12/21 09:03:33;;;;;;;2.10;2.00;;;;;;;-4.39;100.00;102267.25;4364174;32;20064;-73
2021/12/21 09:05:59;;;;;;;2.10;2.00;;;;;;;-5.06;100.00;102167.62;4361327;32;20848;-74
2021/12/21 09:08:24;;;;;;;1.70;1.70;;;;;;;-4.63;100.00;102204.09;4360949;32;20057;-75
2021/12/21 09:10:51;;;;;;;1.80;1.80;;;;;;;-5.38;100.00;102050.47;4358115;32;20072;-75
2021/12/21 09:13:17;;;;;;;3.60;3.50;;;;;;;-4.67;100.00;102154.47;4374848;32;20073;-75
2021/12/21 09:15:42;;;;;;;2.30;2.20;;;;;;;-4.19;100.00;102220.09;4360372;32;20128;-75
2021/12/21 09:18:07;;;;;;;4.37;4.18;;;;;;;-3.78;100.00;102271.88;4374688;32;20127;-75
2021/12/21 09:20:33;;;;;;;2.10;2.00;;;;;;;-3.81;100.00;102258.94;4366146;32;20101;-73
2021/12/21 09:23:02;;;;;;;2.12;2.03;;;;;;;-3.72;100.00;102259.25;4380065;32;20591;-73
2021/12/21 09:25:27;;;;;;;1.75;1.75;;;;;;;-3.95;100.00;102201.22;4381241;32;20401;-74
2021/12/21 09:27:53;;;;;;;2.17;2.08;;;;;;;-3.43;100.00;102275.56;4362990;32;20077;-74
2021/12/21 09:30:19;;;;;;;3.20;3.10;;;;;;;-3.32;100.00;102282.72;4365881;32;20490;-73
2021/12/21 09:32:44;;;;;;;2.33;2.22;;;;;;;-3.37;100.00;102274.84;4371265;32;20069;-75
2021/12/21 09:35:10;;;;;;;4.70;4.50;;;;;;;-4.11;100.00;102108.44;4360679;32;20098;-75
2021/12/21 09:37:35;;;;;;;1.83;1.80;;;;;;;-3.12;100.00;102261.06;4375528;32;20532;-76
2021/12/21 09:40:01;;;;;;;2.45;2.35;;;;;;;-4.19;100.00;102076.56;4376173;32;20070;-75
2021/12/21 09:42:28;;;;;;;2.20;2.10;;;;;;;-3.11;100.00;102218.28;4372024;32;20407;-74
2021/12/21 09:44:53;;;;;;;2.53;2.42;;;;;;;-2.69;100.00;102263.97;4361142;32;20093;-75
2021/12/21 09:47:19;;;;;;;2.60;2.50;;;;;;;-2.58;100.00;102270.28;4372275;32;20069;-76
2021/12/21 09:49:45;;;;;;;2.30;2.20;;;;;;;-3.25;100.00;102136.62;4373498;32;20753;-75
2021/12/21 09:52:18;;;;;;;4.18;3.97;;;;;;;-2.84;100.00;102185.66;4370240;32;20592;-75
2021/12/21 09:54:43;;;;;;;2.50;2.40;;;;;;;-2.25;100.00;102264.28;4366938;32;20204;-75
2021/12/21 09:57:09;;;;;;;3.90;3.75;;;;;;;-2.30;100.00;102230.75;4359144;32;20904;-73
2021/12/21 09:59:34;;;;;;;2.20;2.10;;;;;;;-2.16;100.00;102233.69;4363463;32;20073;-76
2021/12/21 10:02:02;;;;;;;2.37;2.28;;;;;;;-2.34;100.00;102192.09;4368010;32;20160;-73
2021/12/21 10:04:28;;;;;;;2.10;2.00;;;;;;;-2.05;100.00;102232.22;4383349;32;20146;-73
2021/12/21 10:06:55;;;;;;;2.67;2.58;;;;;;;-1.87;100.00;102248.94;4379259;32;20453;-73
2021/12/21 10:09:23;;;;;;;2.58;2.47;;;;;;;-1.69;100.00;102267.37;4369272;32;21072;-76
2021/12/21 10:11:48;;;;;;;2.25;2.15;;;;;;;-1.58;100.00;102261.63;4369691;32;20138;-73
2021/12/21 10:14:17;;;;;;;3.83;3.67;;;;;;;-1.59;100.00;102229.87;4390018;32;20085;-73
2021/12/21 10:16:44;;;;;;;2.20;2.10;;;;;;;-1.52;100.00;102230.91;4368794;32;20685;-76
2021/12/21 10:19:22;;;;;;;3.78;3.65;;;;;;;-2.72;100.00;102014.66;4376786;32;20077;-76
2021/12/21 10:21:47;;;;;;;2.50;2.40;;;;;;;-1.19;100.00;102256.50;4376120;32;20082;-72
2021/12/21 10:24:23;;;;;;;3.78;3.65;;;;;;;-1.55;100.00;102187.91;4376666;32;20096;-75
2021/12/21 10:26:48;;;;;;;2.33;2.22;;;;;;;-1.10;100.00;102233.50;4368548;32;20199;-72
2021/12/21 10:29:15;;;;;;;3.95;3.78;;;;;;;-1.08;99.90;102218.97;4359009;32;20064;-74
2021/12/21 10:31:42;;;;;;;2.40;2.30;;;;;;;-0.99;98.96;102210.53;4381191;32;20093;-74
2021/12/21 10:34:13;;;;;;;3.78;3.65;;;;;;;-0.74;97.96;102216.16;4365379;32;20084;-75
2021/12/21 10:36:51;;;;;;;2.45;2.35;;;;;;;-0.89;97.28;102173.78;4377440;32;20073;-75
2021/12/21 10:39:20;;;;;;;3.80;3.67;;;;;;;-0.73;97.10;102182.69;4362638;32;20103;-75
2021/12/21 10:41:46;;;;;;;2.20;2.10;;;;;;;-0.32;96.31;102241.00;4387644;32;20191;-74
2021/12/21 10:44:13;;;;;;;4.45;4.25;;;;;;;-0.67;95.83;102161.31;4377315;32;20058;-74
2021/12/21 10:46:43;;;;;;;2.58;2.47;;;;;;;-0.14;94.98;102228.44;4379474;32;20108;-74
2021/12/21 10:49:09;;;;;;;3.95;3.80;;;;;;;-0.06;93.46;102228.53;4366833;32;20610;-74
2021/12/21 10:51:36;;;;;;;2.80;2.70;;;;;;;-0.09;93.10;102211.28;4379086;32;20465;-74
2021/12/21 10:54:01;;;;;;;2.72;2.62;;;;;;;0.18;92.35;102238.38;4370227;32;20069;-73
2021/12/21 10:56:27;;;;;;;2.50;2.40;;;;;;;0.24;92.17;102216.94;4368647;32;20078;-74
2021/12/21 10:58:52;;;;;;;2.30;2.20;;;;;;;-0.02;90.67;102169.28;4364443;32;20080;-74
2021/12/21 11:01:23;;;;;;;4.72;4.43;;;;;;;0.37;88.55;102224.91;4374700;32;20073;-74
2021/12/21 11:03:53;;;;;;;2.50;2.40;;;;;;;0.39;87.12;102223.22;4380406;32;20076;-74
2021/12/21 11:06:28;;;;;;;3.97;3.80;;;;;;;0.10;86.63;102149.63;4390218;32;20301;-73
2021/12/21 11:08:54;;;;;;;2.87;2.78;;;;;;;0.55;85.75;102216.56;4376834;32;20077;-73
2021/12/21 11:11:29;;;;;;;3.67;3.53;;;;;;;0.65;85.81;102198.59;4356701;32;20444;-74
2021/12/21 11:14:01;;;;;;;2.40;2.30;;;;;;;-0.36;84.38;102025.12;4374856;32;20069;-72
2021/12/21 11:16:32;;;;;;;2.40;2.30;;;;;;;0.83;85.13;102195.38;4384633;32;20065;-75
2021/12/21 11:18:57;;;;;;;2.70;2.60;;;;;;;0.89;83.89;102185.13;4378401;32;20065;-76
2021/12/21 11:21:22;;;;;;;2.70;2.60;;;;;;;1.12;84.31;102200.88;4358341;32;20064;-72
2021/12/21 11:23:48;;;;;;;2.60;2.50;;;;;;;1.24;84.02;102188.06;4367546;32;20615;-74
2021/12/21 11:26:13;;;;;;;4.15;3.95;;;;;;;1.30;83.05;102180.38;4370658;32;20202;-73
2021/12/21 11:28:39;;;;;;;3.37;3.00;;;;;;;1.40;82.11;102183.94;4365644;32;20089;-75
2021/12/21 11:31:06;;;;;;;3.90;3.78;;;;;;;1.56;82.06;102182.34;4364202;32;20073;-75
2021/12/21 11:33:36;;;;;;;2.80;2.70;;;;;;;1.64;81.43;102185.00;4382443;32;20073;-73
2021/12/21 11:38:46;;;;;;;2.80;2.70;;;;;;;1.86;81.23;102173.13;4392670;32;20100;-74
2021/12/21 11:41:12;;;;;;;4.32;4.12;;;;;;;1.90;80.15;102162.78;4375419;32;20567;-74
2021/12/21 11:43:47;;;;;;;2.60;2.50;;;;;;;1.97;79.47;102166.31;4380418;32;20084;-74
2021/12/21 11:46:14;;;;;;;4.85;4.65;;;;;;;1.91;78.90;102141.22;4377446;32;20318;-74
2021/12/21 11:48:51;;;;;;;2.83;2.72;;;;;;;2.16;79.22;102157.78;4369168;32;20069;-75
2021/12/21 11:51:16;;;;;;;4.45;4.25;;;;;;;2.17;78.30;102156.06;4366001;32;20072;-74
2021/12/21 11:53:42;;;;;;;2.80;2.70;;;;;;;2.16;77.25;102147.41;4376064;32;20235;-75
2021/12/21 11:56:08;;;;;;;4.07;3.87;;;;;;;2.09;77.40;102139.63;4365802;32;20069;-74
2021/12/21 11:58:38;;;;;;;2.90;2.80;;;;;;;1.54;76.82;102029.72;4364212;32;20691;-73
2021/12/21 12:01:14;;;;;;;3.80;3.65;;;;;;;2.35;76.82;102144.97;4353441;32;20074;-75
2021/12/21 12:03:46;;;;;;;3.47;3.28;;;;;;;2.52;76.70;102142.44;4375622;32;20516;-76
2021/12/21 12:06:15;;;;;;;4.15;3.95;;;;;;;2.45;74.35;102138.97;4364559;32;20085;-74
2021/12/21 12:09:14;;;;;;;2.80;2.70;;;;;;;2.34;73.12;102138.87;4374530;32;20066;-74
2021/12/21 12:11:39;;;;;;;2.70;2.60;;;;;;;2.33;73.07;102142.34;4363445;32;20069;-74
2021/12/21 12:14:06;;;;;;;3.28;3.17;;;;;;;2.45;74.01;102135.50;4358100;32;20076;-73
2021/12/21 12:16:39;;;;;;;2.92;2.83;;;;;;;2.39;73.99;102098.34;4371670;32;20798;-74
2021/12/21 12:19:18;;;;;;;4.18;3.97;;;;;;;2.55;72.83;102116.53;4369568;32;20072;-73
2021/12/21 12:21:57;;;;;;;3.10;3.00;;;;;;;2.62;71.54;102115.69;4347847;32;20070;-73